This is the latest recevied weather packets stored in our database for station/object KD4EG. If no packets are shown the sender has not sent any weather packets the latest 10 day(s).
| Time | Temp. | Humidity | Pressure | Rain* | Wind** | Luminosity | Snow |
|---|---|---|---|---|---|---|---|
| 1777958000 | 17.78° C | 52% | 1015 hPa | 0 mm | - | 0 W/m² | - |
| 1777957698 | 18.33° C | 50% | 1014.9 hPa | 0 mm | - | 0 W/m² | - |
| 1777957397 | 18.33° C | 50% | 1014.9 hPa | 0 mm | - | 0 W/m² | - |
| 1777957092 | 18.33° C | 49% | 1014.9 hPa | 0 mm | - | 0 W/m² | - |
| 1777956790 | 18.33° C | 49% | 1014.8 hPa | 0 mm | - | 0 W/m² | - |
| 1777956487 | 17.78° C | 52% | 1014.9 hPa | 0 mm | - | 0 W/m² | - |
| 1777956183 | 18.33° C | 51% | 1015 hPa | 0 mm | - | 0 W/m² | - |
| 1777955880 | 18.33° C | 50% | 1014.8 hPa | 0 mm | - | 0 W/m² | - |
| 1777955576 | 18.89° C | 50% | 1015.1 hPa | 0 mm | - | 0 W/m² | - |
| 1777955272 | 18.89° C | 49% | 1014.8 hPa | 0 mm | - | 0 W/m² | - |
| 1777954970 | 19.44° C | 48% | 1014.9 hPa | 0 mm | - | 0 W/m² | - |
| 1777954666 | 19.44° C | 48% | 1014.8 hPa | 0 mm | - | 0 W/m² | - |
| 1777954363 | 20° C | 47% | 1014.8 hPa | 0 mm | - | 0 W/m² | - |
| 1777954061 | 19.44° C | 48% | 1014.9 hPa | 0 mm | - | 0 W/m² | - |
| 1777953758 | 20° C | 47% | 1014.8 hPa | 0 mm | - | 0 W/m² | - |
| 1777953455 | 20° C | 47% | 1015 hPa | 0 mm | - | 0 W/m² | - |
| 1777953151 | 20° C | 48% | 1015.1 hPa | 0 mm | - | 0 W/m² | - |
| 1777952848 | 20° C | 48% | 1015 hPa | 0 mm | - | 0 W/m² | - |
| 1777952545 | 19.44° C | 48% | 1015.1 hPa | 0 mm | - | 0 W/m² | - |
| 1777952241 | 18.89° C | 51% | 1015.1 hPa | 0 mm | - | 0 W/m² | - |
| 1777951939 | 18.33° C | 54% | 1015.1 hPa | 0 mm | - | 0 W/m² | - |
| 1777951637 | 17.78° C | 59% | 1015 hPa | 0 mm | - | 0 W/m² | - |
| 1777951332 | 17.22° C | 60% | 1015 hPa | 0 mm | - | 0 W/m² | - |
| 1777951030 | 17.22° C | 61% | 1015.1 hPa | 0 mm | - | 0 W/m² | - |
| 1777950727 | 17.78° C | 59% | 1015.3 hPa | 0 mm | - | 0 W/m² | - |
* Rain latest hour (hover to see other rain measurements)
** Current wind speed in m/s (hover to see current wind gust speed)